Aérodrome :







RETROUVEZ-NOUS SUR...

 
LOGIN :

S'inscrire | Disclaimer

   EN    FR    IT 

 









Légende :    VFR   VFR Marginal   IFR   IFR Intensif   IFR Très Intensif
Visi : 
Plafond : 
>= 8 km
>= 3000ft
5 à 8 km
1000 à 3000 ft
1500m à 5 km
500 à 1000 ft
800 à 1500m
200 à 500 ft
< 800m
< 200 ft
Symboles :   Orages  Brouillard  Fortes neiges  Fortes précipitations  Vent > 20 kt






- Altitude de l'aérodrome : 357 ft
- Code IATA : YSJ


CYSJ - Saint John

DERNIER METAR :
  • 090300Z 16003KT 100V170 3SM -DZ BR BKN003 OVC008 15/15 A2992 RMK SC5SC3 SLP134 DENSITY ALT 500FT

METARs EXPIRÉS :
  • 090205Z 13006KT 3SM -DZ BR BKN003 OVC009 15/15 A2994 RMK SC5SC3 SLP142 DENSITY ALT 500FT
  • 090100Z 17005KT 1 1/2SM -SHRA BR OVC003 15/15 A2997 RMK SF8 SLP150 DENSITY ALT 500FT

TAF AMD TAF CYSJ
Valide du 09 à 01h jusqu'au 09 à 12h UTC


090152Z 0901/0912 17005KT 11/2SM -SHRA BR OVC003
TEMPO 0901/0903 1/2SM -DZ FG VV001
FM090300 17005KT 1/2SM -DZ FG VV001
TEMPO 0903/0912 1SM BR OVC003 RMK NXT FCST BY 090600Z
FIR CZQM / Amérique du Nord



MET'MAP, la Météo Aéronautique d'un coup d'oeil ! - Copyright ORBIFLY Décembre 2007 - Disclaimer

ORBIFLY MET'MAP TEAM :

Programmation & Développement : Alexandra Zaïnal
Sur une idée originale de : Baudouin d'Aumeries
Assistance à la programmation : Marc-Olivier Méhu
Soutien technique & logistique : Manuel Goepfert

Contact : metmap@orbifly.com




SOURCES & CREDITS :

   NOAA